sensor_id;sensor_type;location;lat;lon;timestamp;temperature;humidity
4964;DHT22;2497;47.410;9.740;2023-04-25T00:00:33;7.50;99.90
4964;DHT22;2497;47.410;9.740;2023-04-25T00:03:00;7.50;99.90
4964;DHT22;2497;47.410;9.740;2023-04-25T00:05:27;7.50;99.90
4964;DHT22;2497;47.410;9.740;2023-04-25T00:07:57;7.50;99.90
4964;DHT22;2497;47.410;9.740;2023-04-25T00:10:24;7.50;99.90
4964;DHT22;2497;47.410;9.740;2023-04-25T00:12:52;7.50;99.90
4964;DHT22;2497;47.410;9.740;2023-04-25T00:15:19;7.40;99.90
4964;DHT22;2497;47.410;9.740;2023-04-25T00:17:46;7.40;99.90
4964;DHT22;2497;47.410;9.740;2023-04-25T00:20:13;7.30;99.90
4964;DHT22;2497;47.410;9.740;2023-04-25T00:22:41;7.30;99.90
4964;DHT22;2497;47.410;9.740;2023-04-25T00:25:10;7.30;99.90
4964;DHT22;2497;47.410;9.740;2023-04-25T00:27:37;7.30;99.90
4964;DHT22;2497;47.410;9.740;2023-04-25T00:30:05;7.40;99.90
4964;DHT22;2497;47.410;9.740;2023-04-25T00:32:33;7.50;99.90
4964;DHT22;2497;47.410;9.740;2023-04-25T00:35:00;7.50;99.90
4964;DHT22;2497;47.410;9.740;2023-04-25T00:37:27;7.60;99.90
4964;DHT22;2497;47.410;9.740;2023-04-25T00:39:54;7.60;99.90
4964;DHT22;2497;47.410;9.740;2023-04-25T00:42:23;7.60;99.90
4964;DHT22;2497;47.410;9.740;2023-04-25T00:44:51;7.60;99.90
4964;DHT22;2497;47.410;9.740;2023-04-25T00:47:19;7.50;99.90
4964;DHT22;2497;47.410;9.740;2023-04-25T00:49:46;7.50;99.90
4964;DHT22;2497;47.410;9.740;2023-04-25T00:52:13;7.50;99.90
4964;DHT22;2497;47.410;9.740;2023-04-25T00:54:41;7.50;99.90
4964;DHT22;2497;47.410;9.740;2023-04-25T00:57:08;7.60;99.90
4964;DHT22;2497;47.410;9.740;2023-04-25T00:59:38;7.50;99.90
4964;DHT22;2497;47.410;9.740;2023-04-25T01:02:08;7.50;99.90
4964;DHT22;2497;47.410;9.740;2023-04-25T01:04:36;7.50;99.90
4964;DHT22;2497;47.410;9.740;2023-04-25T01:07:03;7.50;99.90
4964;DHT22;2497;47.410;9.740;2023-04-25T01:09:30;7.50;99.90
4964;DHT22;2497;47.410;9.740;2023-04-25T01:11:58;7.40;99.90
4964;DHT22;2497;47.410;9.740;2023-04-25T01:14:25;7.50;99.90
4964;DHT22;2497;47.410;9.740;2023-04-25T01:16:54;7.50;99.90
4964;DHT22;2497;47.410;9.740;2023-04-25T01:19:21;7.50;99.90
4964;DHT22;2497;47.410;9.740;2023-04-25T01:21:50;7.40;99.90
4964;DHT22;2497;47.410;9.740;2023-04-25T01:24:17;7.40;99.90
4964;DHT22;2497;47.410;9.740;2023-04-25T01:26:48;7.40;99.90
4964;DHT22;2497;47.410;9.740;2023-04-25T01:29:20;7.50;99.90
4964;DHT22;2497;47.410;9.740;2023-04-25T01:31:47;7.50;99.90
4964;DHT22;2497;47.410;9.740;2023-04-25T01:34:15;7.50;99.90
4964;DHT22;2497;47.410;9.740;2023-04-25T01:36:42;7.40;99.90
4964;DHT22;2497;47.410;9.740;2023-04-25T01:39:11;7.50;99.90
4964;DHT22;2497;47.410;9.740;2023-04-25T01:41:38;7.50;99.90
4964;DHT22;2497;47.410;9.740;2023-04-25T01:44:05;7.50;99.90
4964;DHT22;2497;47.410;9.740;2023-04-25T01:46:33;7.50;99.90
4964;DHT22;2497;47.410;9.740;2023-04-25T01:49:00;7.50;99.90
4964;DHT22;2497;47.410;9.740;2023-04-25T01:51:27;7.50;99.90
4964;DHT22;2497;47.410;9.740;2023-04-25T01:53:55;7.40;99.90
4964;DHT22;2497;47.410;9.740;2023-04-25T01:56:25;7.40;99.90
4964;DHT22;2497;47.410;9.740;2023-04-25T01:58:54;7.40;99.90
4964;DHT22;2497;47.410;9.740;2023-04-25T02:01:22;7.40;99.90
4964;DHT22;2497;47.410;9.740;2023-04-25T02:03:49;7.50;99.90
4964;DHT22;2497;47.410;9.740;2023-04-25T02:06:16;7.50;99.90
4964;DHT22;2497;47.410;9.740;2023-04-25T02:08:43;7.50;99.90
4964;DHT22;2497;47.410;9.740;2023-04-25T02:11:10;7.50;99.90
4964;DHT22;2497;47.410;9.740;2023-04-25T02:13:38;7.50;99.90
4964;DHT22;2497;47.410;9.740;2023-04-25T02:16:06;7.60;99.90
4964;DHT22;2497;47.410;9.740;2023-04-25T02:18:33;7.50;99.90
4964;DHT22;2497;47.410;9.740;2023-04-25T02:21:02;7.50;99.90
4964;DHT22;2497;47.410;9.740;2023-04-25T02:23:30;7.60;99.90
4964;DHT22;2497;47.410;9.740;2023-04-25T02:25:57;7.50;99.90
4964;DHT22;2497;47.410;9.740;2023-04-25T02:28:24;7.50;99.90
4964;DHT22;2497;47.410;9.740;2023-04-25T02:30:54;7.50;99.90
4964;DHT22;2497;47.410;9.740;2023-04-25T02:33:21;7.50;99.90
4964;DHT22;2497;47.410;9.740;2023-04-25T02:35:48;7.50;99.90
4964;DHT22;2497;47.410;9.740;2023-04-25T02:38:16;7.50;99.90
4964;DHT22;2497;47.410;9.740;2023-04-25T02:40:43;7.40;99.90
4964;DHT22;2497;47.410;9.740;2023-04-25T02:43:12;7.40;99.90
4964;DHT22;2497;47.410;9.740;2023-04-25T02:45:40;7.40;99.90
4964;DHT22;2497;47.410;9.740;2023-04-25T02:48:08;7.30;99.90
4964;DHT22;2497;47.410;9.740;2023-04-25T02:50:35;7.30;99.90
4964;DHT22;2497;47.410;9.740;2023-04-25T02:53:02;7.20;99.90
4964;DHT22;2497;47.410;9.740;2023-04-25T02:55:29;7.20;99.90
4964;DHT22;2497;47.410;9.740;2023-04-25T02:57:56;7.20;99.90
4964;DHT22;2497;47.410;9.740;2023-04-25T03:00:24;7.20;99.90
4964;DHT22;2497;47.410;9.740;2023-04-25T03:02:51;7.20;99.90
4964;DHT22;2497;47.410;9.740;2023-04-25T03:05:20;7.10;99.90
4964;DHT22;2497;47.410;9.740;2023-04-25T03:07:47;7.00;99.90
4964;DHT22;2497;47.410;9.740;2023-04-25T03:10:14;7.00;99.90
4964;DHT22;2497;47.410;9.740;2023-04-25T03:12:41;6.90;99.90
4964;DHT22;2497;47.410;9.740;2023-04-25T03:15:09;6.90;99.90
4964;DHT22;2497;47.410;9.740;2023-04-25T03:17:36;6.90;99.90
4964;DHT22;2497;47.410;9.740;2023-04-25T03:20:04;6.90;99.90
4964;DHT22;2497;47.410;9.740;2023-04-25T03:22:35;6.90;99.90
4964;DHT22;2497;47.410;9.740;2023-04-25T03:25:02;6.90;99.90
4964;DHT22;2497;47.410;9.740;2023-04-25T03:27:32;6.90;99.90
4964;DHT22;2497;47.410;9.740;2023-04-25T03:30:00;6.90;99.90
4964;DHT22;2497;47.410;9.740;2023-04-25T03:32:28;6.80;99.90
4964;DHT22;2497;47.410;9.740;2023-04-25T03:34:55;6.90;99.90
4964;DHT22;2497;47.410;9.740;2023-04-25T03:37:22;6.90;99.90
4964;DHT22;2497;47.410;9.740;2023-04-25T03:39:51;6.90;99.90
4964;DHT22;2497;47.410;9.740;2023-04-25T03:42:18;7.00;99.90
4964;DHT22;2497;47.410;9.740;2023-04-25T03:44:45;7.00;99.90
4964;DHT22;2497;47.410;9.740;2023-04-25T03:47:12;6.90;99.90
4964;DHT22;2497;47.410;9.740;2023-04-25T03:49:42;7.00;99.90
4964;DHT22;2497;47.410;9.740;2023-04-25T03:52:10;6.90;99.90
4964;DHT22;2497;47.410;9.740;2023-04-25T03:54:37;6.90;99.90
4964;DHT22;2497;47.410;9.740;2023-04-25T03:57:05;6.90;99.90
4964;DHT22;2497;47.410;9.740;2023-04-25T03:59:32;6.90;99.90
4964;DHT22;2497;47.410;9.740;2023-04-25T04:02:00;6.90;99.90
4964;DHT22;2497;47.410;9.740;2023-04-25T04:04:27;6.90;99.90
4964;DHT22;2497;47.410;9.740;2023-04-25T04:06:54;6.90;99.90
4964;DHT22;2497;47.410;9.740;2023-04-25T04:09:21;6.90;99.90
4964;DHT22;2497;47.410;9.740;2023-04-25T04:11:48;6.90;99.90
4964;DHT22;2497;47.410;9.740;2023-04-25T04:14:17;6.90;99.90
4964;DHT22;2497;47.410;9.740;2023-04-25T04:16:44;6.90;99.90
4964;DHT22;2497;47.410;9.740;2023-04-25T04:19:11;6.90;99.90
4964;DHT22;2497;47.410;9.740;2023-04-25T04:21:40;7.00;99.90
4964;DHT22;2497;47.410;9.740;2023-04-25T04:24:07;7.00;99.90
4964;DHT22;2497;47.410;9.740;2023-04-25T04:26:36;7.10;99.90
4964;DHT22;2497;47.410;9.740;2023-04-25T04:29:04;7.10;99.90
4964;DHT22;2497;47.410;9.740;2023-04-25T04:31:35;7.10;99.90
4964;DHT22;2497;47.410;9.740;2023-04-25T04:34:02;7.10;99.90
4964;DHT22;2497;47.410;9.740;2023-04-25T04:36:30;7.00;99.90
4964;DHT22;2497;47.410;9.740;2023-04-25T04:39:06;7.10;99.90
4964;DHT22;2497;47.410;9.740;2023-04-25T04:41:47;7.10;99.90
4964;DHT22;2497;47.410;9.740;2023-04-25T04:44:16;7.10;99.90
4964;DHT22;2497;47.410;9.740;2023-04-25T04:46:46;7.00;99.90
4964;DHT22;2497;47.410;9.740;2023-04-25T04:49:15;7.00;99.90
4964;DHT22;2497;47.410;9.740;2023-04-25T04:51:43;7.10;99.90
4964;DHT22;2497;47.410;9.740;2023-04-25T04:54:28;7.20;99.90
4964;DHT22;2497;47.410;9.740;2023-04-25T04:56:55;7.30;99.90
4964;DHT22;2497;47.410;9.740;2023-04-25T04:59:23;7.30;99.90
4964;DHT22;2497;47.410;9.740;2023-04-25T05:01:52;7.30;99.90
4964;DHT22;2497;47.410;9.740;2023-04-25T05:04:19;7.30;99.90
4964;DHT22;2497;47.410;9.740;2023-04-25T05:06:49;7.30;99.90
4964;DHT22;2497;47.410;9.740;2023-04-25T05:09:17;7.30;99.90
4964;DHT22;2497;47.410;9.740;2023-04-25T05:11:45;7.30;99.90
4964;DHT22;2497;47.410;9.740;2023-04-25T05:16:47;7.30;99.90
4964;DHT22;2497;47.410;9.740;2023-04-25T05:19:16;7.30;99.90
4964;DHT22;2497;47.410;9.740;2023-04-25T05:21:43;7.30;99.90
4964;DHT22;2497;47.410;9.740;2023-04-25T05:24:11;7.30;99.90
4964;DHT22;2497;47.410;9.740;2023-04-25T05:26:38;7.40;99.90
4964;DHT22;2497;47.410;9.740;2023-04-25T05:29:05;7.40;99.90
4964;DHT22;2497;47.410;9.740;2023-04-25T05:31:33;7.40;99.90
4964;DHT22;2497;47.410;9.740;2023-04-25T05:34:01;7.50;99.90
4964;DHT22;2497;47.410;9.740;2023-04-25T05:36:30;7.50;99.90
4964;DHT22;2497;47.410;9.740;2023-04-25T05:39:08;7.60;99.90
4964;DHT22;2497;47.410;9.740;2023-04-25T05:41:38;7.70;99.90
4964;DHT22;2497;47.410;9.740;2023-04-25T05:44:09;7.70;99.90
4964;DHT22;2497;47.410;9.740;2023-04-25T05:46:36;7.80;99.90
4964;DHT22;2497;47.410;9.740;2023-04-25T05:49:04;7.90;99.90
4964;DHT22;2497;47.410;9.740;2023-04-25T05:51:33;8.00;99.90
4964;DHT22;2497;47.410;9.740;2023-04-25T05:54:01;8.00;99.90
4964;DHT22;2497;47.410;9.740;2023-04-25T05:56:28;8.10;99.90
4964;DHT22;2497;47.410;9.740;2023-04-25T05:58:55;8.20;99.90
4964;DHT22;2497;47.410;9.740;2023-04-25T06:01:22;8.20;99.90
4964;DHT22;2497;47.410;9.740;2023-04-25T06:03:50;8.30;99.90
4964;DHT22;2497;47.410;9.740;2023-04-25T06:06:18;8.40;99.90
4964;DHT22;2497;47.410;9.740;2023-04-25T06:08:49;8.50;99.90
4964;DHT22;2497;47.410;9.740;2023-04-25T06:11:17;8.60;99.90
4964;DHT22;2497;47.410;9.740;2023-04-25T06:13:45;8.70;99.90
4964;DHT22;2497;47.410;9.740;2023-04-25T06:16:12;8.70;99.90
4964;DHT22;2497;47.410;9.740;2023-04-25T06:18:41;8.90;99.90
4964;DHT22;2497;47.410;9.740;2023-04-25T06:21:09;9.10;99.90
4964;DHT22;2497;47.410;9.740;2023-04-25T06:23:37;9.50;99.90
4964;DHT22;2497;47.410;9.740;2023-04-25T06:26:06;9.80;99.90
4964;DHT22;2497;47.410;9.740;2023-04-25T06:28:36;10.20;99.90
4964;DHT22;2497;47.410;9.740;2023-04-25T06:31:03;10.20;99.90
4964;DHT22;2497;47.410;9.740;2023-04-25T06:33:31;9.90;99.90
4964;DHT22;2497;47.410;9.740;2023-04-25T06:36:06;9.80;99.90
4964;DHT22;2497;47.410;9.740;2023-04-25T06:38:33;9.70;99.90
4964;DHT22;2497;47.410;9.740;2023-04-25T06:41:10;9.50;99.90
4964;DHT22;2497;47.410;9.740;2023-04-25T06:43:37;9.70;99.90
4964;DHT22;2497;47.410;9.740;2023-04-25T06:46:04;9.70;99.90
4964;DHT22;2497;47.410;9.740;2023-04-25T06:48:32;9.60;99.90
4964;DHT22;2497;47.410;9.740;2023-04-25T06:51:02;9.70;99.90
4964;DHT22;2497;47.410;9.740;2023-04-25T06:53:29;9.60;99.90
4964;DHT22;2497;47.410;9.740;2023-04-25T06:55:58;9.70;99.90
4964;DHT22;2497;47.410;9.740;2023-04-25T06:58:27;9.90;99.90
4964;DHT22;2497;47.410;9.740;2023-04-25T07:00:58;10.10;99.90
4964;DHT22;2497;47.410;9.740;2023-04-25T07:03:25;10.20;99.90
4964;DHT22;2497;47.410;9.740;2023-04-25T07:05:52;10.90;99.90
4964;DHT22;2497;47.410;9.740;2023-04-25T07:08:20;11.50;99.90
4964;DHT22;2497;47.410;9.740;2023-04-25T07:10:49;12.10;99.90
4964;DHT22;2497;47.410;9.740;2023-04-25T07:13:16;12.50;99.90
4964;DHT22;2497;47.410;9.740;2023-04-25T07:15:45;13.10;99.90
4964;DHT22;2497;47.410;9.740;2023-04-25T07:18:13;13.70;99.90
4964;DHT22;2497;47.410;9.740;2023-04-25T07:20:41;14.10;99.90
4964;DHT22;2497;47.410;9.740;2023-04-25T07:23:08;13.90;99.90
4964;DHT22;2497;47.410;9.740;2023-04-25T07:25:36;13.50;99.90
4964;DHT22;2497;47.410;9.740;2023-04-25T07:28:03;13.10;99.90
4964;DHT22;2497;47.410;9.740;2023-04-25T07:30:31;13.10;99.90
4964;DHT22;2497;47.410;9.740;2023-04-25T07:33:04;12.90;99.90
4964;DHT22;2497;47.410;9.740;2023-04-25T07:35:32;12.60;99.90
4964;DHT22;2497;47.410;9.740;2023-04-25T07:37:59;12.40;99.90
4964;DHT22;2497;47.410;9.740;2023-04-25T07:40:26;12.30;99.90
4964;DHT22;2497;47.410;9.740;2023-04-25T07:42:53;12.30;99.90
4964;DHT22;2497;47.410;9.740;2023-04-25T07:45:21;12.00;99.90
4964;DHT22;2497;47.410;9.740;2023-04-25T07:47:49;11.70;99.90
4964;DHT22;2497;47.410;9.740;2023-04-25T07:50:18;11.50;99.90
4964;DHT22;2497;47.410;9.740;2023-04-25T07:52:45;11.30;99.90
4964;DHT22;2497;47.410;9.740;2023-04-25T07:55:13;11.20;99.90
4964;DHT22;2497;47.410;9.740;2023-04-25T07:57:40;11.20;99.90
4964;DHT22;2497;47.410;9.740;2023-04-25T08:00:08;11.10;99.90
4964;DHT22;2497;47.410;9.740;2023-04-25T08:02:38;10.80;99.90
4964;DHT22;2497;47.410;9.740;2023-04-25T08:05:06;10.70;99.90
4964;DHT22;2497;47.410;9.740;2023-04-25T08:07:46;10.60;99.90
4964;DHT22;2497;47.410;9.740;2023-04-25T08:10:14;10.30;99.90
4964;DHT22;2497;47.410;9.740;2023-04-25T08:12:41;10.00;99.90
4964;DHT22;2497;47.410;9.740;2023-04-25T08:15:09;9.90;99.90
4964;DHT22;2497;47.410;9.740;2023-04-25T08:17:36;9.60;99.90
4964;DHT22;2497;47.410;9.740;2023-04-25T08:20:07;9.30;99.90
4964;DHT22;2497;47.410;9.740;2023-04-25T08:22:35;9.10;99.90
4964;DHT22;2497;47.410;9.740;2023-04-25T08:25:09;8.90;99.90
4964;DHT22;2497;47.410;9.740;2023-04-25T08:27:36;8.70;99.90
4964;DHT22;2497;47.410;9.740;2023-04-25T08:30:04;8.30;99.90
4964;DHT22;2497;47.410;9.740;2023-04-25T08:32:35;8.00;99.90
4964;DHT22;2497;47.410;9.740;2023-04-25T08:35:09;7.70;99.90
4964;DHT22;2497;47.410;9.740;2023-04-25T08:37:36;7.50;99.90
4964;DHT22;2497;47.410;9.740;2023-04-25T08:43:13;7.40;99.90
4964;DHT22;2497;47.410;9.740;2023-04-25T08:45:41;7.20;99.90
4964;DHT22;2497;47.410;9.740;2023-04-25T08:48:11;7.20;99.90
4964;DHT22;2497;47.410;9.740;2023-04-25T08:50:45;7.20;99.90
4964;DHT22;2497;47.410;9.740;2023-04-25T08:53:18;7.20;99.90
4964;DHT22;2497;47.410;9.740;2023-04-25T08:55:48;7.20;99.90
4964;DHT22;2497;47.410;9.740;2023-04-25T08:58:19;7.30;99.90
4964;DHT22;2497;47.410;9.740;2023-04-25T09:00:48;7.60;99.90
4964;DHT22;2497;47.410;9.740;2023-04-25T09:03:24;7.70;99.90
4964;DHT22;2497;47.410;9.740;2023-04-25T09:06:13;7.80;99.90
4964;DHT22;2497;47.410;9.740;2023-04-25T09:08:41;7.90;99.90
4964;DHT22;2497;47.410;9.740;2023-04-25T09:11:09;7.80;99.90
4964;DHT22;2497;47.410;9.740;2023-04-25T09:13:38;7.80;99.90
4964;DHT22;2497;47.410;9.740;2023-04-25T09:16:05;7.80;99.90
4964;DHT22;2497;47.410;9.740;2023-04-25T09:18:35;7.70;99.90
4964;DHT22;2497;47.410;9.740;2023-04-25T09:21:07;7.80;99.90
4964;DHT22;2497;47.410;9.740;2023-04-25T09:23:40;7.90;99.90
4964;DHT22;2497;47.410;9.740;2023-04-25T09:26:09;7.80;99.90
4964;DHT22;2497;47.410;9.740;2023-04-25T09:28:38;7.80;99.90
4964;DHT22;2497;47.410;9.740;2023-04-25T09:31:06;7.70;99.90
4964;DHT22;2497;47.410;9.740;2023-04-25T09:33:40;7.50;99.90
4964;DHT22;2497;47.410;9.740;2023-04-25T09:36:12;7.60;99.90
4964;DHT22;2497;47.410;9.740;2023-04-25T09:38:44;7.70;99.90
4964;DHT22;2497;47.410;9.740;2023-04-25T09:41:12;7.80;99.90
4964;DHT22;2497;47.410;9.740;2023-04-25T09:43:45;7.70;99.90
4964;DHT22;2497;47.410;9.740;2023-04-25T09:46:33;7.80;99.90
4964;DHT22;2497;47.410;9.740;2023-04-25T09:49:09;7.80;99.90
4964;DHT22;2497;47.410;9.740;2023-04-25T09:51:37;7.90;99.90
4964;DHT22;2497;47.410;9.740;2023-04-25T09:54:04;8.00;99.90
4964;DHT22;2497;47.410;9.740;2023-04-25T09:56:36;8.20;99.90
4964;DHT22;2497;47.410;9.740;2023-04-25T09:59:09;8.40;99.90
4964;DHT22;2497;47.410;9.740;2023-04-25T10:01:39;8.50;99.90
4964;DHT22;2497;47.410;9.740;2023-04-25T10:04:10;8.50;99.90
4964;DHT22;2497;47.410;9.740;2023-04-25T10:06:38;8.70;99.90
4964;DHT22;2497;47.410;9.740;2023-04-25T10:09:08;8.70;99.90
4964;DHT22;2497;47.410;9.740;2023-04-25T10:11:37;8.60;99.90
4964;DHT22;2497;47.410;9.740;2023-04-25T10:14:07;8.70;99.90
4964;DHT22;2497;47.410;9.740;2023-04-25T10:16:35;8.70;99.90
4964;DHT22;2497;47.410;9.740;2023-04-25T10:19:03;8.80;99.90
4964;DHT22;2497;47.410;9.740;2023-04-25T10:21:32;9.00;99.90
4964;DHT22;2497;47.410;9.740;2023-04-25T10:24:01;9.30;99.90
4964;DHT22;2497;47.410;9.740;2023-04-25T10:26:29;9.30;99.90
4964;DHT22;2497;47.410;9.740;2023-04-25T10:28:57;9.50;99.90
4964;DHT22;2497;47.410;9.740;2023-04-25T10:31:26;9.50;99.90
4964;DHT22;2497;47.410;9.740;2023-04-25T10:33:54;9.40;99.90
4964;DHT22;2497;47.410;9.740;2023-04-25T10:36:24;9.50;99.90
4964;DHT22;2497;47.410;9.740;2023-04-25T10:38:53;9.60;99.90
4964;DHT22;2497;47.410;9.740;2023-04-25T10:41:21;9.60;99.90
4964;DHT22;2497;47.410;9.740;2023-04-25T10:43:49;9.60;99.90
4964;DHT22;2497;47.410;9.740;2023-04-25T10:46:18;9.60;99.90
4964;DHT22;2497;47.410;9.740;2023-04-25T10:48:48;9.50;99.90
4964;DHT22;2497;47.410;9.740;2023-04-25T10:51:18;9.40;99.90
4964;DHT22;2497;47.410;9.740;2023-04-25T10:53:46;9.30;99.90
4964;DHT22;2497;47.410;9.740;2023-04-25T10:56:17;9.30;99.90
4964;DHT22;2497;47.410;9.740;2023-04-25T10:58:46;9.30;99.90
4964;DHT22;2497;47.410;9.740;2023-04-25T11:01:14;9.20;99.90
4964;DHT22;2497;47.410;9.740;2023-04-25T11:03:43;9.10;99.90
4964;DHT22;2497;47.410;9.740;2023-04-25T11:06:22;9.20;99.90
4964;DHT22;2497;47.410;9.740;2023-04-25T11:08:50;9.10;99.90
4964;DHT22;2497;47.410;9.740;2023-04-25T11:11:18;9.00;99.90
4964;DHT22;2497;47.410;9.740;2023-04-25T11:13:47;9.00;99.90
4964;DHT22;2497;47.410;9.740;2023-04-25T11:16:15;9.20;99.90
4964;DHT22;2497;47.410;9.740;2023-04-25T11:18:42;9.70;99.90
4964;DHT22;2497;47.410;9.740;2023-04-25T11:21:09;10.10;99.90
4964;DHT22;2497;47.410;9.740;2023-04-25T11:23:38;10.40;99.90
4964;DHT22;2497;47.410;9.740;2023-04-25T11:26:05;10.50;99.90
4964;DHT22;2497;47.410;9.740;2023-04-25T11:28:33;10.40;99.90
4964;DHT22;2497;47.410;9.740;2023-04-25T11:31:00;10.30;99.90
4964;DHT22;2497;47.410;9.740;2023-04-25T11:33:29;10.40;99.90
4964;DHT22;2497;47.410;9.740;2023-04-25T11:35:56;10.60;99.90
4964;DHT22;2497;47.410;9.740;2023-04-25T11:38:29;10.50;99.90
4964;DHT22;2497;47.410;9.740;2023-04-25T11:40:58;11.00;99.90
4964;DHT22;2497;47.410;9.740;2023-04-25T11:43:28;11.50;99.90
4964;DHT22;2497;47.410;9.740;2023-04-25T11:45:55;11.20;99.90
4964;DHT22;2497;47.410;9.740;2023-04-25T11:48:26;10.50;99.90
4964;DHT22;2497;47.410;9.740;2023-04-25T11:50:54;10.10;99.90
4964;DHT22;2497;47.410;9.740;2023-04-25T11:53:23;9.90;99.90
4964;DHT22;2497;47.410;9.740;2023-04-25T11:56:10;9.60;99.90
4964;DHT22;2497;47.410;9.740;2023-04-25T11:58:59;9.20;99.90
4964;DHT22;2497;47.410;9.740;2023-04-25T12:01:48;8.30;99.90
4964;DHT22;2497;47.410;9.740;2023-04-25T12:04:17;7.90;99.90
4964;DHT22;2497;47.410;9.740;2023-04-25T12:06:50;8.10;99.90
4964;DHT22;2497;47.410;9.740;2023-04-25T12:09:28;9.00;99.90
4964;DHT22;2497;47.410;9.740;2023-04-25T12:12:12;11.00;99.90
4964;DHT22;2497;47.410;9.740;2023-04-25T12:14:39;12.90;99.90
4964;DHT22;2497;47.410;9.740;2023-04-25T12:19:58;12.30;99.90
4964;DHT22;2497;47.410;9.740;2023-04-25T12:22:26;12.40;99.90
4964;DHT22;2497;47.410;9.740;2023-04-25T12:25:09;12.10;99.90
4964;DHT22;2497;47.410;9.740;2023-04-25T12:27:39;11.70;99.90
4964;DHT22;2497;47.410;9.740;2023-04-25T12:30:08;11.40;99.90
4964;DHT22;2497;47.410;9.740;2023-04-25T12:32:37;11.80;99.90
4964;DHT22;2497;47.410;9.740;2023-04-25T12:35:07;13.00;99.90
4964;DHT22;2497;47.410;9.740;2023-04-25T12:37:35;14.20;99.90
4964;DHT22;2497;47.410;9.740;2023-04-25T12:40:02;14.80;99.90
4964;DHT22;2497;47.410;9.740;2023-04-25T12:42:32;15.50;99.90
4964;DHT22;2497;47.410;9.740;2023-04-25T12:45:00;15.10;99.90
4964;DHT22;2497;47.410;9.740;2023-04-25T12:47:29;14.20;99.90
4964;DHT22;2497;47.410;9.740;2023-04-25T12:49:56;13.10;99.90
4964;DHT22;2497;47.410;9.740;2023-04-25T12:52:24;11.90;99.90
4964;DHT22;2497;47.410;9.740;2023-04-25T12:54:51;11.20;99.90
4964;DHT22;2497;47.410;9.740;2023-04-25T12:57:19;10.40;99.90
4964;DHT22;2497;47.410;9.740;2023-04-25T12:59:46;10.00;99.90
4964;DHT22;2497;47.410;9.740;2023-04-25T13:02:15;9.60;99.90
4964;DHT22;2497;47.410;9.740;2023-04-25T13:04:42;9.40;99.90
4964;DHT22;2497;47.410;9.740;2023-04-25T13:07:09;9.30;99.90
4964;DHT22;2497;47.410;9.740;2023-04-25T13:09:37;9.00;99.90
4964;DHT22;2497;47.410;9.740;2023-04-25T13:12:04;8.80;99.90
4964;DHT22;2497;47.410;9.740;2023-04-25T13:14:32;8.60;99.90
4964;DHT22;2497;47.410;9.740;2023-04-25T13:16:59;8.30;99.90
4964;DHT22;2497;47.410;9.740;2023-04-25T13:19:28;8.00;99.90
4964;DHT22;2497;47.410;9.740;2023-04-25T13:21:55;7.70;99.90
4964;DHT22;2497;47.410;9.740;2023-04-25T13:24:22;7.50;99.90
4964;DHT22;2497;47.410;9.740;2023-04-25T13:26:49;7.20;99.90
4964;DHT22;2497;47.410;9.740;2023-04-25T13:29:16;7.20;99.90
4964;DHT22;2497;47.410;9.740;2023-04-25T13:31:43;7.20;99.90
4964;DHT22;2497;47.410;9.740;2023-04-25T13:34:10;7.20;99.90
4964;DHT22;2497;47.410;9.740;2023-04-25T13:36:39;7.20;99.90
4964;DHT22;2497;47.410;9.740;2023-04-25T13:39:06;7.20;99.90
4964;DHT22;2497;47.410;9.740;2023-04-25T13:41:33;7.20;99.90
4964;DHT22;2497;47.410;9.740;2023-04-25T13:44:01;7.00;99.90
4964;DHT22;2497;47.410;9.740;2023-04-25T13:46:28;6.90;99.90
4964;DHT22;2497;47.410;9.740;2023-04-25T13:48:55;6.90;99.90
4964;DHT22;2497;47.410;9.740;2023-04-25T13:51:22;6.90;99.90
4964;DHT22;2497;47.410;9.740;2023-04-25T13:53:50;6.70;99.90
4964;DHT22;2497;47.410;9.740;2023-04-25T13:56:18;6.50;99.90
4964;DHT22;2497;47.410;9.740;2023-04-25T13:58:48;6.40;99.90
4964;DHT22;2497;47.410;9.740;2023-04-25T14:01:19;6.30;99.90
4964;DHT22;2497;47.410;9.740;2023-04-25T14:03:47;6.10;99.90
4964;DHT22;2497;47.410;9.740;2023-04-25T14:06:17;6.10;99.90
4964;DHT22;2497;47.410;9.740;2023-04-25T14:08:50;6.10;99.90
4964;DHT22;2497;47.410;9.740;2023-04-25T14:11:17;6.00;99.90
4964;DHT22;2497;47.410;9.740;2023-04-25T14:13:44;6.00;99.90
4964;DHT22;2497;47.410;9.740;2023-04-25T14:16:13;6.00;99.90
4964;DHT22;2497;47.410;9.740;2023-04-25T14:18:47;6.10;99.90
4964;DHT22;2497;47.410;9.740;2023-04-25T14:21:16;6.10;99.90
4964;DHT22;2497;47.410;9.740;2023-04-25T14:23:44;6.00;99.90
4964;DHT22;2497;47.410;9.740;2023-04-25T14:26:14;6.10;99.90
4964;DHT22;2497;47.410;9.740;2023-04-25T14:28:42;6.10;99.90
4964;DHT22;2497;47.410;9.740;2023-04-25T14:31:12;6.00;99.90
4964;DHT22;2497;47.410;9.740;2023-04-25T14:33:39;6.00;99.90
4964;DHT22;2497;47.410;9.740;2023-04-25T14:36:09;6.10;99.90
4964;DHT22;2497;47.410;9.740;2023-04-25T14:38:36;6.20;99.90
4964;DHT22;2497;47.410;9.740;2023-04-25T14:41:04;6.40;99.90
4964;DHT22;2497;47.410;9.740;2023-04-25T14:43:33;7.20;99.90
4964;DHT22;2497;47.410;9.740;2023-04-25T14:46:00;7.80;99.90
4964;DHT22;2497;47.410;9.740;2023-04-25T14:48:28;8.20;99.90
4964;DHT22;2497;47.410;9.740;2023-04-25T14:51:04;8.20;99.90
4964;DHT22;2497;47.410;9.740;2023-04-25T14:53:36;8.00;99.90
4964;DHT22;2497;47.410;9.740;2023-04-25T14:56:04;8.00;99.90
4964;DHT22;2497;47.410;9.740;2023-04-25T15:01:52;9.20;99.90
4964;DHT22;2497;47.410;9.740;2023-04-25T15:04:19;9.30;99.90
4964;DHT22;2497;47.410;9.740;2023-04-25T15:06:47;9.00;99.90
4964;DHT22;2497;47.410;9.740;2023-04-25T15:09:14;9.10;99.90
4964;DHT22;2497;47.410;9.740;2023-04-25T15:11:43;11.30;99.90
4964;DHT22;2497;47.410;9.740;2023-04-25T15:14:11;13.10;99.90
4964;DHT22;2497;47.410;9.740;2023-04-25T15:16:38;12.80;99.90
4964;DHT22;2497;47.410;9.740;2023-04-25T15:19:07;12.00;99.90
4964;DHT22;2497;47.410;9.740;2023-04-25T15:21:35;11.10;99.90
4964;DHT22;2497;47.410;9.740;2023-04-25T15:24:02;10.90;99.90
4964;DHT22;2497;47.410;9.740;2023-04-25T15:26:30;10.50;99.90
4964;DHT22;2497;47.410;9.740;2023-04-25T15:28:59;11.80;99.90
4964;DHT22;2497;47.410;9.740;2023-04-25T15:31:27;12.90;99.90
4964;DHT22;2497;47.410;9.740;2023-04-25T15:33:56;13.00;99.90
4964;DHT22;2497;47.410;9.740;2023-04-25T15:36:27;12.80;99.90
4964;DHT22;2497;47.410;9.740;2023-04-25T15:38:54;12.10;99.90
4964;DHT22;2497;47.410;9.740;2023-04-25T15:41:22;11.50;99.90
4964;DHT22;2497;47.410;9.740;2023-04-25T15:43:52;11.30;99.90
4964;DHT22;2497;47.410;9.740;2023-04-25T15:46:22;11.30;99.90
4964;DHT22;2497;47.410;9.740;2023-04-25T15:48:49;12.00;99.90
4964;DHT22;2497;47.410;9.740;2023-04-25T15:51:16;12.20;99.90
4964;DHT22;2497;47.410;9.740;2023-04-25T15:54:00;11.80;99.90
4964;DHT22;2497;47.410;9.740;2023-04-25T15:56:39;12.00;99.90
4964;DHT22;2497;47.410;9.740;2023-04-25T15:59:06;11.60;99.90
4964;DHT22;2497;47.410;9.740;2023-04-25T16:01:33;11.30;99.90
4964;DHT22;2497;47.410;9.740;2023-04-25T16:04:00;11.20;99.90
4964;DHT22;2497;47.410;9.740;2023-04-25T16:06:30;11.00;99.90
4964;DHT22;2497;47.410;9.740;2023-04-25T16:09:03;10.90;99.90
4964;DHT22;2497;47.410;9.740;2023-04-25T16:11:31;10.70;99.90
4964;DHT22;2497;47.410;9.740;2023-04-25T16:13:58;10.50;99.90
4964;DHT22;2497;47.410;9.740;2023-04-25T16:16:27;10.40;99.90
4964;DHT22;2497;47.410;9.740;2023-04-25T16:18:56;10.30;99.90
4964;DHT22;2497;47.410;9.740;2023-04-25T16:21:23;10.20;99.90
4964;DHT22;2497;47.410;9.740;2023-04-25T16:23:51;10.00;99.90
4964;DHT22;2497;47.410;9.740;2023-04-25T16:26:20;10.00;99.90
4964;DHT22;2497;47.410;9.740;2023-04-25T16:28:48;9.90;99.90
4964;DHT22;2497;47.410;9.740;2023-04-25T16:31:15;9.80;99.90
4964;DHT22;2497;47.410;9.740;2023-04-25T16:33:42;9.80;99.90
4964;DHT22;2497;47.410;9.740;2023-04-25T16:36:09;9.60;99.90